Time;durP1;ratioP1;P1;durP2;ratioP2;P2;SDS_P1;SDS_P2;PMS_P1;PMS_P2;Temp;Humidity;BMP_temperature;BMP_pressure;BME280_temperature;BME280_humidity;BME280_pressure;Samples;Min_cycle;Max_cycle;Signal;HPM_P1;HPM_P2
2022/07/15 00:00:54;;;;;;;;;;;;;;;27.56;44.89;99780.31;2069313;28;20445;-64
2022/07/15 00:01:55;;;;;;;;;;;;;;;27.56;44.89;99781.19;2074549;28;20296;-64
2022/07/15 00:02:55;;;;;;;;;;;;;;;27.55;44.81;99778.59;2075756;28;19951;-64
2022/07/15 00:03:55;;;;;;;;;;;;;;;27.55;44.87;99781.38;2074030;28;19924;-64
2022/07/15 00:04:55;;;;;;;;;;;;;;;27.56;44.80;99778.41;2076247;28;19917;-64
2022/07/15 00:05:56;;;;;;;;;;;;;;;27.55;45.10;99771.16;2075154;28;19920;-64
2022/07/15 00:06:56;;;;;;;;;;;;;;;27.56;44.85;99780.31;2074532;28;20535;-64
2022/07/15 00:07:58;;;;;;;;;;;;;;;27.56;44.95;99774.75;2076155;28;19921;-64
2022/07/15 00:08:58;;;;;;;;;;;;;;;27.55;44.94;99773.06;2073904;28;19917;-63
2022/07/15 00:10:14;;;;;;;;;;;;;;;27.56;45.04;99780.31;2073662;28;20506;-64
2022/07/15 00:11:14;;;;;;;;;;;;;;;27.55;44.95;99778.59;2070070;28;20439;-64
2022/07/15 00:12:15;;;;;;;;;;;;;;;27.55;45.03;99778.59;2068608;28;20308;-64
2022/07/15 00:13:15;;;;;;;;;;;;;;;27.55;44.94;99778.59;2072930;28;19917;-64
2022/07/15 00:14:15;;;;;;;;;;;;;;;27.55;45.07;99782.22;2072459;28;19905;-64
2022/07/15 00:15:16;;;;;;;;;;;;;;;27.55;44.95;99779.47;2070932;28;19988;-64
2022/07/15 00:16:17;;;;;;;;;;;;;;;27.55;45.04;99781.38;2069248;28;19924;-64
2022/07/15 00:17:17;;;;;;;;;;;;;;;27.54;45.16;99782.47;2073417;28;19917;-64
2022/07/15 00:18:17;;;;;;;;;;;;;;;27.55;44.92;99773.91;2073893;28;19912;-64
2022/07/15 00:19:17;;;;;;;;;;;;;;;27.54;44.89;99776.91;2074213;28;19971;-64
2022/07/15 00:20:18;;;;;;;;;;;;;;;27.55;45.19;99778.59;2067945;28;19914;-64
2022/07/15 00:21:19;;;;;;;;;;;;;;;27.55;44.90;99781.38;2069302;28;19913;-64
2022/07/15 00:22:19;;;;;;;;;;;;;;;27.55;44.94;99781.38;2068822;28;20483;-64
2022/07/15 00:23:20;;;;;;;;;;;;;;;27.55;45.20;99778.59;2071718;28;19951;-64
2022/07/15 00:24:20;;;;;;;;;;;;;;;27.53;45.03;99776.03;2074256;28;19939;-63
2022/07/15 00:25:20;;;;;;;;;;;;;;;27.54;45.11;99782.47;2075200;28;19917;-64
2022/07/15 00:26:20;;;;;;;;;;;;;;;27.53;45.23;99778.81;2071896;28;20372;-64
2022/07/15 00:27:21;;;;;;;;;;;;;;;27.53;45.04;99777.97;2067211;28;20464;-64
2022/07/15 00:28:21;;;;;;;;;;;;;;;27.54;44.98;99776.91;2068071;28;19921;-64
2022/07/15 00:29:22;;;;;;;;;;;;;;;27.53;45.31;99775.19;2067347;28;19917;-64
2022/07/15 00:30:22;;;;;;;;;;;;;;;27.52;45.21;99777.13;2067409;28;19914;-64
2022/07/15 00:31:23;;;;;;;;;;;;;;;27.53;45.15;99781.59;2074231;28;20774;-64
2022/07/15 00:32:23;;;;;;;;;;;;;;;27.52;45.42;99776.28;2072453;28;19922;-64
2022/07/15 00:33:24;;;;;;;;;;;;;;;27.51;45.38;99772.66;2073698;28;20414;-64
2022/07/15 00:34:24;;;;;;;;;;;;;;;27.52;45.34;99779.03;2075270;28;20481;-64
2022/07/15 00:35:24;;;;;;;;;;;;;;;27.51;45.34;99778.19;2074581;28;19917;-64
2022/07/15 00:36:25;;;;;;;;;;;;;;;27.52;45.38;99779.03;2071692;28;20492;-64
2022/07/15 00:37:25;;;;;;;;;;;;;;;27.52;45.11;99784.59;2075590;28;19921;-65
2022/07/15 00:38:25;;;;;;;;;;;;;;;27.52;45.24;99779.03;2067693;28;19964;-64
2022/07/15 00:39:26;;;;;;;;;;;;;;;27.53;45.08;99772.44;2074214;28;19909;-64
2022/07/15 00:40:26;;;;;;;;;;;;;;;27.52;45.33;99776.28;2070792;28;19964;-64
2022/07/15 00:41:27;;;;;;;;;;;;;;;27.52;45.12;99773.50;2075524;28;19905;-64
2022/07/15 00:42:45;;;;;;;;;;;;;;;27.52;45.38;99768.81;2073026;28;19913;-64
2022/07/15 00:43:46;;;;;;;;;;;;;;;27.51;45.13;99777.31;2071499;28;19923;-64
2022/07/15 00:44:46;;;;;;;;;;;;;;;27.51;45.27;99772.66;2068445;28;19917;-64
2022/07/15 00:45:47;;;;;;;;;;;;;;;27.52;45.06;99770.75;2074511;28;20252;-64
2022/07/15 00:46:47;;;;;;;;;;;;;;;27.50;45.08;99765.41;2073588;28;19956;-64
2022/07/15 00:47:49;;;;;;;;;;;;;;;27.50;45.28;99765.41;2075060;28;20160;-64
2022/07/15 00:48:49;;;;;;;;;;;;;;;27.52;45.20;99763.28;2074709;28;19919;-64
2022/07/15 00:49:49;;;;;;;;;;;;;;;27.52;45.18;99756.91;2074491;28;19924;-64
2022/07/15 00:50:50;;;;;;;;;;;;;;;27.51;45.24;99760.72;2074073;28;19948;-64
2022/07/15 00:51:51;;;;;;;;;;;;;;;27.52;45.07;99762.44;2071626;28;19913;-64
2022/07/15 00:52:57;;;;;;;;;;;;;;;27.52;45.12;99762.44;2075656;28;19947;-64
2022/07/15 00:53:57;;;;;;;;;;;;;;;27.52;45.20;99762.44;2068294;28;19913;-64
2022/07/15 00:54:59;;;;;;;;;;;;;;;27.52;45.24;99762.44;2070372;28;19913;-64
2022/07/15 00:56:01;;;;;;;;;;;;;;;27.51;45.20;99757.94;2066738;28;19935;-64
2022/07/15 00:57:03;;;;;;;;;;;;;;;27.51;45.08;99755.19;2074239;28;19913;-64
2022/07/15 00:58:04;;;;;;;;;;;;;;;27.51;45.15;99752.41;2074418;28;19923;-64
2022/07/15 00:59:05;;;;;;;;;;;;;;;27.51;44.96;99752.41;2067975;28;19922;-64
2022/07/15 01:00:07;;;;;;;;;;;;;;;27.52;44.87;99756.91;2071480;28;20598;-64
2022/07/15 01:01:07;;;;;;;;;;;;;;;27.51;44.96;99749.63;2066454;28;19909;-64
2022/07/15 01:02:08;;;;;;;;;;;;;;;27.51;44.99;99755.19;2067093;28;19925;-64
2022/07/15 01:03:08;;;;;;;;;;;;;;;27.51;44.92;99747.75;2069974;28;19999;-64
2022/07/15 01:04:09;;;;;;;;;;;;;;;27.51;45.11;99750.53;2071409;28;20384;-64
2022/07/15 01:05:10;;;;;;;;;;;;;;;27.52;45.06;99751.38;2070506;28;19917;-64
2022/07/15 01:06:10;;;;;;;;;;;;;;;27.52;44.99;99751.38;2074622;28;20328;-64
2022/07/15 01:07:13;;;;;;;;;;;;;;;27.50;45.01;99746.03;2066808;28;20019;-64
2022/07/15 01:08:14;;;;;;;;;;;;;;;27.51;45.00;99746.88;2070874;28;19917;-64
2022/07/15 01:09:14;;;;;;;;;;;;;;;27.49;45.05;99735.19;2069794;28;19917;-64
2022/07/15 01:10:15;;;;;;;;;;;;;;;27.51;44.95;99746.88;2069628;28;19920;-64
2022/07/15 01:11:15;;;;;;;;;;;;;;;27.50;44.99;99736.88;2073842;28;20672;-63
2022/07/15 01:12:16;;;;;;;;;;;;;;;27.50;44.94;99747.94;2068471;28;19975;-64
2022/07/15 01:13:19;;;;;;;;;;;;;;;27.50;45.20;99747.94;2070480;28;19913;-64
2022/07/15 01:14:20;;;;;;;;;;;;;;;27.50;45.06;99747.94;2072184;28;20394;-64
2022/07/15 01:15:20;;;;;;;;;;;;;;;27.49;45.08;99746.25;2073832;28;19952;-64
2022/07/15 01:16:20;;;;;;;;;;;;;;;27.50;45.26;99747.94;2073400;28;20251;-64
2022/07/15 01:17:20;;;;;;;;;;;;;;;27.48;45.28;99741.78;2068842;28;19952;-64
2022/07/15 01:18:21;;;;;;;;;;;;;;;27.48;45.45;99745.38;2073766;28;19964;-64
2022/07/15 01:19:21;;;;;;;;;;;;;;;27.49;45.25;99749.03;2071938;28;20480;-64
2022/07/15 01:20:22;;;;;;;;;;;;;;;27.48;45.17;99744.53;2076350;28;20295;-63
2022/07/15 01:21:23;;;;;;;;;;;;;;;27.48;45.22;99748.16;2074630;28;20003;-64
2022/07/15 01:22:23;;;;;;;;;;;;;;;27.48;45.37;99747.31;2073496;28;19909;-64
2022/07/15 01:23:24;;;;;;;;;;;;;;;27.48;45.27;99747.31;2070636;28;20343;-64
2022/07/15 01:24:24;;;;;;;;;;;;;;;27.47;45.22;99746.47;2080732;28;19916;-64
2022/07/15 01:25:25;;;;;;;;;;;;;;;27.48;45.27;99747.31;2073180;28;19941;-64
2022/07/15 01:26:25;;;;;;;;;;;;;;;27.48;45.17;99747.31;2076332;28;20300;-64
2022/07/15 01:27:26;;;;;;;;;;;;;;;27.48;45.37;99750.06;2068305;28;19914;-64
2022/07/15 01:28:26;;;;;;;;;;;;;;;27.48;45.36;99744.53;2070008;28;20296;-64
2022/07/15 01:29:27;;;;;;;;;;;;;;;27.48;45.26;99744.53;2073948;28;19917;-64
2022/07/15 01:30:27;;;;;;;;;;;;;;;27.47;45.15;99740.09;2071743;28;19923;-64
2022/07/15 01:31:28;;;;;;;;;;;;;;;27.47;45.36;99743.69;2071119;28;19917;-63
2022/07/15 01:32:28;;;;;;;;;;;;;;;27.48;45.45;99741.78;2066157;28;19917;-63
2022/07/15 01:33:30;;;;;;;;;;;;;;;27.48;45.42;99742.63;2070185;28;20291;-63
2022/07/15 01:34:30;;;;;;;;;;;;;;;27.48;45.35;99744.53;2071959;28;19967;-63
2022/07/15 01:35:31;;;;;;;;;;;;;;;27.49;45.27;99746.25;2071305;28;19913;-64
2022/07/15 01:36:31;;;;;;;;;;;;;;;27.48;45.43;99737.09;2072558;28;19913;-64
2022/07/15 01:37:31;;;;;;;;;;;;;;;27.48;45.48;99745.38;2073779;28;19917;-64
2022/07/15 01:38:32;;;;;;;;;;;;;;;27.48;45.15;99739.00;2074375;28;20323;-64
2022/07/15 01:39:32;;;;;;;;;;;;;;;27.48;45.27;99728.78;2075513;28;20653;-64
2022/07/15 01:40:32;;;;;;;;;;;;;;;27.48;45.33;99733.47;2072935;28;19921;-64
2022/07/15 01:41:33;;;;;;;;;;;;;;;27.48;45.33;99739.84;2075301;28;19952;-63
2022/07/15 01:42:33;;;;;;;;;;;;;;;27.48;45.43;99734.31;2073671;28;19921;-64
2022/07/15 01:43:33;;;;;;;;;;;;;;;27.47;45.19;99738.16;2075597;28;19966;-63
2022/07/15 01:44:33;;;;;;;;;;;;;;;27.49;45.49;99740.72;2073448;28;19917;-64
2022/07/15 01:45:34;;;;;;;;;;;;;;;27.48;45.28;99734.31;2073761;28;19917;-64
2022/07/15 01:46:34;;;;;;;;;;;;;;;27.47;45.45;99731.78;2074567;28;19946;-64
2022/07/15 01:47:41;;;;;;;;;;;;;;;27.49;45.20;99735.19;2071888;28;20335;-64
2022/07/15 01:50:00;;;;;;;;;;;;;;;27.47;45.48;99743.69;2075270;28;20541;-64
2022/07/15 01:51:01;;;;;;;;;;;;;;;27.48;45.40;99742.63;2075068;28;20327;-63
2022/07/15 01:52:02;;;;;;;;;;;;;;;27.48;45.41;99739.00;2070037;28;20703;-63
2022/07/15 01:53:02;;;;;;;;;;;;;;;27.48;45.38;99741.78;2076234;28;20290;-64
2022/07/15 01:54:02;;;;;;;;;;;;;;;27.48;45.13;99741.78;2073745;28;19987;-64
2022/07/15 01:55:03;;;;;;;;;;;;;;;27.46;45.20;99741.97;2075828;28;19920;-63
2022/07/15 01:56:04;;;;;;;;;;;;;;;27.46;45.13;99741.13;2073720;28;20327;-63
2022/07/15 01:57:04;;;;;;;;;;;;;;;27.46;45.15;99747.50;2074161;28;19917;-64
2022/07/15 01:58:05;;;;;;;;;;;;;;;27.45;45.26;99745.81;2075121;28;20567;-63
2022/07/15 01:59:05;;;;;;;;;;;;;;;27.45;45.36;99742.22;2074481;28;19979;-64
2022/07/15 02:00:07;;;;;;;;;;;;;;;27.45;45.33;99750.50;2074352;28;19917;-64
2022/07/15 02:01:07;;;;;;;;;;;;;;;27.45;45.42;99751.34;2074880;28;19913;-64
2022/07/15 02:02:08;;;;;;;;;;;;;;;27.45;45.54;99751.34;2074124;28;19925;-64
2022/07/15 02:03:08;;;;;;;;;;;;;;;27.44;45.50;99749.66;2076030;28;19925;-63
2022/07/15 02:04:08;;;;;;;;;;;;;;;27.45;45.49;99750.50;2076568;28;19970;-64
2022/07/15 02:05:09;;;;;;;;;;;;;;;27.44;45.50;99754.31;2076252;28;19940;-63
2022/07/15 02:06:09;;;;;;;;;;;;;;;27.44;45.43;99749.66;2068854;28;19925;-64
2022/07/15 02:07:09;;;;;;;;;;;;;;;27.44;45.59;99748.78;2073386;28;19921;-64
2022/07/15 02:08:10;;;;;;;;;;;;;;;27.45;45.50;99756.03;2076714;28;20555;-64
2022/07/15 02:09:10;;;;;;;;;;;;;;;27.44;45.30;99748.78;2074741;28;19926;-64
2022/07/15 02:10:10;;;;;;;;;;;;;;;27.45;45.37;99751.34;2076918;28;19945;-63
2022/07/15 02:11:11;;;;;;;;;;;;;;;27.44;45.31;99755.19;2076446;28;19916;-64
2022/07/15 02:12:11;;;;;;;;;;;;;;;27.45;45.23;99750.50;2075613;28;19913;-63
2022/07/15 02:13:13;;;;;;;;;;;;;;;27.45;45.49;99750.50;2077098;28;19920;-64
2022/07/15 02:14:13;;;;;;;;;;;;;;;27.45;45.50;99750.50;2073299;28;19936;-63
2022/07/15 02:15:13;;;;;;;;;;;;;;;27.46;45.11;99752.19;2071080;28;19960;-63
2022/07/15 02:16:14;;;;;;;;;;;;;;;27.45;45.28;99756.03;2074704;28;19940;-63
2022/07/15 02:17:14;;;;;;;;;;;;;;;27.45;45.44;99750.50;2074856;28;20091;-63
2022/07/15 02:18:14;;;;;;;;;;;;;;;27.47;45.30;99756.69;2076633;28;20410;-64
2022/07/15 02:19:15;;;;;;;;;;;;;;;27.45;45.24;99756.03;2074560;28;20012;-63
2022/07/15 02:20:16;;;;;;;;;;;;;;;27.45;45.06;99751.34;2075257;28;19999;-64
2022/07/15 02:21:16;;;;;;;;;;;;;;;27.47;45.21;99753.94;2076087;28;19909;-64
2022/07/15 02:22:17;;;;;;;;;;;;;;;27.46;45.31;99746.66;2074081;28;20019;-64
2022/07/15 02:23:17;;;;;;;;;;;;;;;27.46;45.22;99752.19;2071012;28;20108;-64
2022/07/15 02:24:19;;;;;;;;;;;;;;;27.46;44.95;99752.19;2074419;28;20250;-64
2022/07/15 02:25:19;;;;;;;;;;;;;;;27.45;45.25;99745.81;2076529;28;19917;-63
2022/07/15 02:26:19;;;;;;;;;;;;;;;27.46;45.30;99752.19;2074656;28;19921;-63
2022/07/15 02:27:21;;;;;;;;;;;;;;;27.46;45.03;99757.75;2069560;28;20266;-64
2022/07/15 02:28:21;;;;;;;;;;;;;;;27.46;45.20;99754.97;2072667;28;20382;-63
2022/07/15 02:29:21;;;;;;;;;;;;;;;27.46;45.36;99757.75;2072611;28;19913;-64
2022/07/15 02:30:25;;;;;;;;;;;;;;;27.46;45.31;99757.75;2076279;28;20313;-64
2022/07/15 02:31:25;;;;;;;;;;;;;;;27.45;45.17;99756.03;2078087;28;19913;-63
2022/07/15 02:32:26;;;;;;;;;;;;;;;27.46;45.10;99763.28;2072262;28;19967;-63
2022/07/15 02:33:26;;;;;;;;;;;;;;;27.45;45.11;99756.03;2076372;28;19912;-63
2022/07/15 02:34:26;;;;;;;;;;;;;;;27.46;45.20;99754.97;2076316;28;20287;-63
2022/07/15 02:35:27;;;;;;;;;;;;;;;27.45;45.28;99756.91;2075979;28;19917;-64
2022/07/15 02:36:27;;;;;;;;;;;;;;;27.45;45.45;99762.44;2075683;28;19955;-63
2022/07/15 02:37:28;;;;;;;;;;;;;;;27.44;45.36;99760.75;2076614;28;19952;-64
2022/07/15 02:38:28;;;;;;;;;;;;;;;27.43;45.32;99756.25;2075392;28;19943;-64
2022/07/15 02:39:28;;;;;;;;;;;;;;;27.43;45.45;99753.47;2071282;28;19941;-63
2022/07/15 02:40:30;;;;;;;;;;;;;;;27.44;45.59;99749.66;2069791;28;19916;-63
2022/07/15 02:41:31;;;;;;;;;;;;;;;27.43;45.72;99750.72;2081016;28;19972;-64
2022/07/15 02:42:31;;;;;;;;;;;;;;;27.43;45.69;99755.41;2074811;28;20302;-64
2022/07/15 02:43:31;;;;;;;;;;;;;;;27.42;45.54;99750.94;2076595;28;20295;-63
2022/07/15 02:44:32;;;;;;;;;;;;;;;27.42;45.59;99750.94;2074997;28;19917;-64
2022/07/15 02:45:34;;;;;;;;;;;;;;;27.43;45.72;99760.94;2075484;28;20403;-64
2022/07/15 02:46:34;;;;;;;;;;;;;;;27.42;45.83;99756.47;2076719;28;20464;-64
2022/07/15 02:47:34;;;;;;;;;;;;;;;27.42;45.85;99756.47;2072065;28;20006;-63
2022/07/15 02:48:35;;;;;;;;;;;;;;;27.41;45.79;99749.22;2075483;28;20451;-63
2022/07/15 02:49:36;;;;;;;;;;;;;;;27.41;45.88;99755.59;2068969;28;19925;-63
2022/07/15 02:50:36;;;;;;;;;;;;;;;27.40;45.68;99753.91;2072236;28;19906;-64
2022/07/15 02:51:36;;;;;;;;;;;;;;;27.41;45.93;99752.00;2074553;28;19921;-64
2022/07/15 02:52:36;;;;;;;;;;;;;;;27.41;45.85;99754.75;2076474;28;19984;-64
2022/07/15 02:53:37;;;;;;;;;;;;;;;27.41;45.77;99749.22;2074437;28;20368;-64
2022/07/15 02:54:37;;;;;;;;;;;;;;;27.41;45.57;99757.53;2076068;28;19905;-64
2022/07/15 02:55:37;;;;;;;;;;;;;;;27.41;45.62;99749.22;2075586;28;20342;-63
2022/07/15 02:56:38;;;;;;;;;;;;;;;27.41;45.81;99749.22;2073549;28;19914;-64
2022/07/15 02:57:39;;;;;;;;;;;;;;;27.40;45.52;99748.38;2075556;28;20408;-64
2022/07/15 02:58:39;;;;;;;;;;;;;;;27.41;45.89;99757.53;2070641;28;19917;-63
2022/07/15 02:59:39;;;;;;;;;;;;;;;27.41;45.71;99749.22;2073963;28;19927;-64
2022/07/15 03:00:39;;;;;;;;;;;;;;;27.41;45.60;99749.22;2075379;28;19924;-64
2022/07/15 03:01:40;;;;;;;;;;;;;;;27.42;45.69;99756.47;2075469;28;19918;-64
2022/07/15 03:02:40;;;;;;;;;;;;;;;27.42;45.64;99745.41;2068580;28;19926;-64
2022/07/15 03:03:41;;;;;;;;;;;;;;;27.41;45.73;99744.53;2072058;28;19940;-63
2022/07/15 03:04:41;;;;;;;;;;;;;;;27.41;45.47;99749.22;2076805;28;20530;-64
2022/07/15 03:05:41;;;;;;;;;;;;;;;27.42;45.58;99742.66;2067842;28;20725;-63
2022/07/15 03:06:42;;;;;;;;;;;;;;;27.43;45.53;99752.63;2068875;28;20573;-63
2022/07/15 03:07:42;;;;;;;;;;;;;;;27.42;45.59;99745.41;2068151;28;19918;-63
2022/07/15 03:08:42;;;;;;;;;;;;;;;27.42;45.62;99748.19;2068104;28;19948;-63
2022/07/15 03:09:42;;;;;;;;;;;;;;;27.42;45.42;99753.72;2068629;28;20260;-63
2022/07/15 03:10:43;;;;;;;;;;;;;;;27.41;45.45;99750.06;2068961;28;20638;-63
2022/07/15 03:11:43;;;;;;;;;;;;;;;27.41;45.73;99747.31;2068680;28;20491;-63
2022/07/15 03:12:43;;;;;;;;;;;;;;;27.42;45.53;99745.41;2068030;28;19918;-64
2022/07/15 03:13:44;;;;;;;;;;;;;;;27.41;45.59;99750.06;2074851;28;19943;-63
2022/07/15 03:14:44;;;;;;;;;;;;;;;27.41;45.43;99755.59;2074837;28;20395;-64
2022/07/15 03:15:44;;;;;;;;;;;;;;;27.41;45.34;99749.22;2076455;28;20502;-65
2022/07/15 03:16:46;;;;;;;;;;;;;;;27.41;45.34;99746.47;2071519;28;19930;-64
2022/07/15 03:17:46;;;;;;;;;;;;;;;27.41;45.55;99746.47;2068084;28;19913;-64
2022/07/15 03:18:46;;;;;;;;;;;;;;;27.40;45.58;99747.53;2068858;28;19924;-63
2022/07/15 03:19:47;;;;;;;;;;;;;;;27.42;45.42;99753.72;2076398;28;19913;-63
2022/07/15 03:20:47;;;;;;;;;;;;;;;27.41;45.61;99750.06;2072760;28;19924;-64
2022/07/15 03:21:48;;;;;;;;;;;;;;;27.41;45.64;99752.00;2071792;28;19913;-63
2022/07/15 03:22:48;;;;;;;;;;;;;;;27.40;45.47;99753.91;2075682;28;20382;-64
2022/07/15 03:23:48;;;;;;;;;;;;;;;27.40;45.67;99750.31;2069648;28;20377;-64
2022/07/15 03:24:49;;;;;;;;;;;;;;;27.39;45.55;99751.34;2076410;28;20019;-64
2022/07/15 03:25:49;;;;;;;;;;;;;;;27.39;45.61;99752.22;2079143;28;19917;-63
2022/07/15 03:26:49;;;;;;;;;;;;;;;27.39;45.65;99745.81;2071418;28;19956;-64
2022/07/15 03:27:49;;;;;;;;;;;;;;;27.39;45.44;99751.34;2072619;28;19921;-64
2022/07/15 03:28:50;;;;;;;;;;;;;;;27.39;45.55;99751.34;2074836;28;19917;-64
2022/07/15 03:29:50;;;;;;;;;;;;;;;27.38;45.73;99747.75;2068092;28;19928;-63
2022/07/15 03:30:50;;;;;;;;;;;;;;;27.38;45.44;99752.44;2074569;28;19913;-63
2022/07/15 03:31:51;;;;;;;;;;;;;;;27.38;45.72;99755.19;2070617;28;19917;-63
2022/07/15 03:32:52;;;;;;;;;;;;;;;27.38;45.42;99750.50;2068804;28;19914;-63
2022/07/15 03:33:53;;;;;;;;;;;;;;;27.36;45.62;99750.75;2073577;28;19913;-63
2022/07/15 03:34:56;;;;;;;;;;;;;;;27.37;45.71;99754.34;2074997;28;19917;-63
2022/07/15 03:35:56;;;;;;;;;;;;;;;27.37;45.61;99751.59;2067350;28;19925;-64
2022/07/15 03:36:57;;;;;;;;;;;;;;;27.38;45.76;99760.72;2072102;28;19956;-64
2022/07/15 03:37:58;;;;;;;;;;;;;;;27.39;45.42;99751.34;2067751;28;19924;-64
2022/07/15 03:38:58;;;;;;;;;;;;;;;27.38;45.49;99755.19;2074932;28;19916;-64
2022/07/15 03:39:59;;;;;;;;;;;;;;;27.38;45.37;99750.50;2073431;28;20390;-63
2022/07/15 03:40:59;;;;;;;;;;;;;;;27.38;45.48;99752.44;2075086;28;19916;-64
2022/07/15 03:41:59;;;;;;;;;;;;;;;27.38;45.58;99749.66;2074217;28;19957;-64
2022/07/15 03:43:00;;;;;;;;;;;;;;;27.38;45.52;99755.19;2075166;28;19955;-64
2022/07/15 03:44:01;;;;;;;;;;;;;;;27.38;45.58;99757.97;2075020;28;19968;-64
2022/07/15 03:45:01;;;;;;;;;;;;;;;27.39;45.36;99759.66;2073401;28;19917;-64
2022/07/15 03:46:01;;;;;;;;;;;;;;;27.38;45.32;99756.03;2071838;28;19968;-63
2022/07/15 03:47:01;;;;;;;;;;;;;;;27.39;45.35;99751.34;2071644;28;19917;-64
2022/07/15 03:48:02;;;;;;;;;;;;;;;27.38;45.61;99752.44;2074568;28;20422;-63
2022/07/15 03:49:02;;;;;;;;;;;;;;;27.38;45.66;99755.19;2071258;28;19917;-63
2022/07/15 03:50:03;;;;;;;;;;;;;;;27.38;45.41;99760.72;2071128;28;20410;-64
2022/07/15 03:51:03;;;;;;;;;;;;;;;27.38;45.63;99766.25;2072603;28;19917;-64
2022/07/15 03:52:03;;;;;;;;;;;;;;;27.38;45.46;99756.03;2073564;28;19917;-64
2022/07/15 03:53:04;;;;;;;;;;;;;;;27.39;45.39;99773.50;2069861;28;19924;-64
2022/07/15 03:54:04;;;;;;;;;;;;;;;27.39;45.73;99770.72;2077626;28;20253;-63
2022/07/15 03:55:06;;;;;;;;;;;;;;;27.38;45.73;99772.66;2071318;28;20617;-64
2022/07/15 03:56:06;;;;;;;;;;;;;;;27.38;45.52;99766.25;2073276;28;19909;-64
2022/07/15 03:57:06;;;;;;;;;;;;;;;27.38;45.80;99771.81;2068577;28;19913;-64
2022/07/15 03:58:06;;;;;;;;;;;;;;;27.38;45.66;99772.66;2072714;28;19971;-64
2022/07/15 03:59:07;;;;;;;;;;;;;;;27.38;45.63;99766.25;2074783;28;19944;-63
2022/07/15 04:00:07;;;;;;;;;;;;;;;27.38;45.64;99774.56;2071457;28;19906;-64
2022/07/15 04:01:08;;;;;;;;;;;;;;;27.38;45.75;99771.81;2068422;28;20280;-65
2022/07/15 04:02:08;;;;;;;;;;;;;;;27.38;45.72;99771.81;2075853;28;20383;-64
2022/07/15 04:03:08;;;;;;;;;;;;;;;27.38;45.51;99774.56;2071566;28;19917;-64
2022/07/15 04:04:09;;;;;;;;;;;;;;;27.38;45.54;99777.34;2075841;28;19917;-64
2022/07/15 04:05:09;;;;;;;;;;;;;;;27.38;45.84;99777.34;2078483;28;20356;-64
2022/07/15 04:06:09;;;;;;;;;;;;;;;27.36;45.67;99770.13;2075562;28;19913;-64
2022/07/15 04:07:10;;;;;;;;;;;;;;;27.36;45.63;99767.34;2070825;28;19976;-63
2022/07/15 04:08:10;;;;;;;;;;;;;;;27.36;45.50;99775.66;2070953;28;19928;-63
2022/07/15 04:09:11;;;;;;;;;;;;;;;27.35;45.58;99779.47;2075524;28;19924;-64
2022/07/15 04:10:11;;;;;;;;;;;;;;;27.35;45.49;99773.06;2070681;28;19913;-64
2022/07/15 04:11:12;;;;;;;;;;;;;;;27.35;45.73;99773.91;2067154;28;19964;-64
2022/07/15 04:12:12;;;;;;;;;;;;;;;27.34;45.78;99775.00;2076360;28;19917;-64
2022/07/15 04:13:12;;;;;;;;;;;;;;;27.34;45.86;99776.88;2072984;28;20025;-63
2022/07/15 04:14:13;;;;;;;;;;;;;;;27.33;45.69;99773.28;2069289;28;20737;-63
2022/07/15 04:15:14;;;;;;;;;;;;;;;27.33;45.74;99776.03;2076238;28;20483;-63
2022/07/15 04:16:14;;;;;;;;;;;;;;;27.33;45.92;99778.81;2076310;28;19917;-64
2022/07/15 04:17:14;;;;;;;;;;;;;;;27.33;45.73;99776.03;2070875;28;19918;-63
2022/07/15 04:18:15;;;;;;;;;;;;;;;27.33;45.95;99773.28;2075239;28;19963;-63
2022/07/15 04:19:15;;;;;;;;;;;;;;;27.32;45.91;99779.88;2077199;28;19916;-64
2022/07/15 04:20:15;;;;;;;;;;;;;;;27.32;45.66;99774.34;2075422;28;19964;-64
2022/07/15 04:21:15;;;;;;;;;;;;;;;27.32;45.74;99766.06;2072605;28;20358;-63
2022/07/15 04:22:16;;;;;;;;;;;;;;;27.32;45.71;99768.81;2075017;28;19952;-63
2022/07/15 04:23:16;;;;;;;;;;;;;;;27.33;45.82;99770.50;2076118;28;20311;-63
2022/07/15 04:24:17;;;;;;;;;;;;;;;27.31;45.79;99764.34;2074358;28;19913;-64
2022/07/15 04:25:18;;;;;;;;;;;;;;;27.32;45.91;99768.81;2075171;28;19913;-63
2022/07/15 04:26:19;;;;;;;;;;;;;;;27.33;45.53;99767.75;2080148;28;19971;-64
2022/07/15 04:27:19;;;;;;;;;;;;;;;27.33;45.83;99773.28;2075685;28;20069;-64
2022/07/15 04:28:20;;;;;;;;;;;;;;;27.33;45.69;99778.81;2073817;28;20330;-63
2022/07/15 04:29:20;;;;;;;;;;;;;;;27.32;45.67;99779.88;2069216;28;20426;-64
2022/07/15 04:30:21;;;;;;;;;;;;;;;27.33;45.75;99780.72;2074198;28;19924;-64
2022/07/15 04:31:21;;;;;;;;;;;;;;;27.33;45.81;99778.81;2068839;28;20733;-63
2022/07/15 04:32:21;;;;;;;;;;;;;;;27.33;45.72;99776.03;2073875;28;19927;-64
2022/07/15 04:33:23;;;;;;;;;;;;;;;27.33;45.68;99778.81;2069602;28;19948;-64
2022/07/15 04:34:23;;;;;;;;;;;;;;;27.34;45.73;99776.88;2071220;28;19924;-64
2022/07/15 04:35:23;;;;;;;;;;;;;;;27.34;45.78;99782.44;2072531;28;19949;-64
2022/07/15 04:36:24;;;;;;;;;;;;;;;27.32;45.67;99779.88;2068091;28;19918;-63
2022/07/15 04:37:24;;;;;;;;;;;;;;;27.33;45.65;99778.81;2068871;28;19917;-63
2022/07/15 04:38:24;;;;;;;;;;;;;;;27.33;45.59;99776.03;2069466;28;19917;-63
2022/07/15 04:39:24;;;;;;;;;;;;;;;27.32;45.73;99782.66;2071936;28;19963;-64
2022/07/15 04:40:25;;;;;;;;;;;;;;;27.33;45.63;99781.59;2072686;28;19939;-64
2022/07/15 04:41:25;;;;;;;;;;;;;;;27.32;45.47;99777.13;2067780;28;20594;-64
2022/07/15 04:42:25;;;;;;;;;;;;;;;27.33;45.67;99780.72;2072475;28;20360;-64
2022/07/15 04:43:26;;;;;;;;;;;;;;;27.31;45.86;99780.94;2067514;28;19920;-63
2022/07/15 04:44:26;;;;;;;;;;;;;;;27.32;45.78;99782.66;2072720;28;19921;-64
2022/07/15 04:45:27;;;;;;;;;;;;;;;27.33;45.76;99787.13;2075229;28;19913;-64
2022/07/15 04:46:27;;;;;;;;;;;;;;;27.33;45.54;99787.13;2068087;28;19918;-64
2022/07/15 04:47:27;;;;;;;;;;;;;;;27.32;45.84;99779.88;2073449;28;19988;-64
2022/07/15 04:51:05;;;;;;;;;;;;;;;27.33;45.58;99786.28;2074907;28;19917;-63
2022/07/15 04:52:06;;;;;;;;;;;;;;;27.32;45.73;99785.44;2074967;28;19913;-64
2022/07/15 04:53:06;;;;;;;;;;;;;;;27.32;45.60;99779.88;2070430;28;19925;-64
2022/07/15 04:54:07;;;;;;;;;;;;;;;27.32;45.60;99785.44;2075179;28;20065;-64
2022/07/15 04:55:07;;;;;;;;;;;;;;;27.31;45.59;99789.25;2077196;28;19913;-64
2022/07/15 04:56:07;;;;;;;;;;;;;;;27.31;45.80;99794.78;2081031;28;19962;-64
2022/07/15 04:57:08;;;;;;;;;;;;;;;27.30;45.61;99790.31;2075503;28;20157;-64
2022/07/15 04:58:08;;;;;;;;;;;;;;;27.30;45.76;99793.09;2074876;28;20396;-63
2022/07/15 04:59:08;;;;;;;;;;;;;;;27.30;45.81;99787.53;2080893;28;20943;-64
2022/07/15 05:00:09;;;;;;;;;;;;;;;27.30;45.71;99786.69;2072061;28;20408;-64
2022/07/15 05:01:09;;;;;;;;;;;;;;;27.29;45.77;99788.63;2074574;28;20039;-64
2022/07/15 05:02:09;;;;;;;;;;;;;;;27.28;45.74;99789.66;2074659;28;19928;-64
2022/07/15 05:03:10;;;;;;;;;;;;;;;27.28;45.81;99789.66;2069766;28;19967;-63
2022/07/15 05:04:10;;;;;;;;;;;;;;;27.29;45.75;99796.03;2075452;28;19967;-63
2022/07/15 05:05:11;;;;;;;;;;;;;;;27.28;45.68;99789.66;2069274;28;19917;-64
2022/07/15 05:06:11;;;;;;;;;;;;;;;27.28;45.70;99791.59;2067595;28;19913;-64
2022/07/15 05:07:12;;;;;;;;;;;;;;;27.26;45.68;99794.56;2068768;28;19917;-63
2022/07/15 05:08:12;;;;;;;;;;;;;;;27.28;45.53;99800.72;2068721;28;19999;-64
2022/07/15 05:09:12;;;;;;;;;;;;;;;27.28;45.78;99800.72;2074193;28;19917;-64
2022/07/15 05:10:12;;;;;;;;;;;;;;;27.28;45.50;99795.19;2067407;28;19913;-64
2022/07/15 05:11:13;;;;;;;;;;;;;;;27.28;45.49;99794.34;2067920;28;19924;-63
2022/07/15 05:12:13;;;;;;;;;;;;;;;27.28;45.50;99797.97;2075197;28;19953;-64
2022/07/15 05:13:13;;;;;;;;;;;;;;;27.28;45.42;99794.34;2074770;28;19913;-63
2022/07/15 05:14:14;;;;;;;;;;;;;;;27.27;45.50;99793.50;2075714;28;19953;-64
2022/07/15 05:15:14;;;;;;;;;;;;;;;27.28;45.75;99795.19;2068021;28;20319;-64
2022/07/15 05:16:15;;;;;;;;;;;;;;;27.28;45.62;99797.97;2072124;28;20040;-63
2022/07/15 05:17:15;;;;;;;;;;;;;;;27.28;45.55;99795.19;2073801;28;19971;-64
2022/07/15 05:18:15;;;;;;;;;;;;;;;27.28;45.55;99789.66;2073340;28;20352;-64
2022/07/15 05:19:15;;;;;;;;;;;;;;;27.28;45.61;99794.34;2071194;28;19932;-64
2022/07/15 05:20:16;;;;;;;;;;;;;;;27.28;45.41;99800.72;2073320;28;20007;-63